Time;durP1;ratioP1;P1;durP2;ratioP2;P2;SDS_P1;SDS_P2;PMS_P1;PMS_P2;Temp;Humidity;BMP_temperature;BMP_pressure;BME280_temperature;BME280_humidity;BME280_pressure;Samples;Min_cycle;Max_cycle;Signal;HPM_P1;HPM_P2
2023/08/10 00:00:48;;;;;;;7.18;1.65;;;15.40;99.90;;;;;;5056759;28;20133;-68
2023/08/10 00:03:13;;;;;;;6.47;1.70;;;15.40;99.90;;;;;;5057179;28;20045;-66
2023/08/10 00:05:39;;;;;;;4.43;1.65;;;15.30;99.90;;;;;;5055711;28;20067;-68
2023/08/10 00:08:05;;;;;;;3.60;1.42;;;15.40;99.90;;;;;;5057707;28;20083;-67
2023/08/10 00:10:31;;;;;;;2.65;1.60;;;15.40;99.90;;;;;;5059293;28;20074;-67
2023/08/10 00:12:56;;;;;;;5.93;1.60;;;15.30;99.90;;;;;;5062140;28;20084;-68
2023/08/10 00:15:22;;;;;;;2.53;1.50;;;15.30;99.90;;;;;;5058541;28;20053;-68
2023/08/10 00:17:49;;;;;;;8.77;1.95;;;15.30;99.90;;;;;;5059983;28;20045;-67
2023/08/10 00:20:14;;;;;;;9.75;1.83;;;15.30;99.90;;;;;;5042971;28;20967;-68
2023/08/10 00:22:40;;;;;;;5.63;1.70;;;15.30;99.90;;;;;;5060510;28;20076;-67
2023/08/10 00:25:07;;;;;;;4.70;1.35;;;15.30;99.90;;;;;;5050669;28;20371;-68
2023/08/10 00:27:35;;;;;;;3.92;1.50;;;15.30;99.90;;;;;;5040315;28;20045;-68
2023/08/10 00:30:00;;;;;;;5.60;1.77;;;15.30;99.90;;;;;;5053895;28;20052;-66
2023/08/10 00:32:26;;;;;;;6.22;1.40;;;15.30;99.90;;;;;;5059709;28;20131;-66
2023/08/10 00:34:52;;;;;;;7.30;1.92;;;15.30;99.90;;;;;;5060186;28;20075;-67
2023/08/10 00:37:18;;;;;;;5.15;1.88;;;15.30;99.90;;;;;;5059155;28;20814;-68
2023/08/10 00:39:44;;;;;;;7.45;1.40;;;15.30;99.90;;;;;;5059344;28;20045;-67
2023/08/10 00:42:10;;;;;;;8.25;1.60;;;15.20;99.90;;;;;;5060913;28;20052;-68
2023/08/10 00:44:36;;;;;;;4.40;1.48;;;15.20;99.90;;;;;;5060408;28;20041;-67
2023/08/10 00:47:01;;;;;;;3.97;1.70;;;15.20;99.90;;;;;;5059609;28;20136;-67
2023/08/10 00:49:27;;;;;;;5.20;1.65;;;15.20;99.90;;;;;;5059868;28;20051;-68
2023/08/10 00:51:53;;;;;;;5.75;1.52;;;15.10;99.90;;;;;;5061320;28;20059;-68
2023/08/10 00:54:19;;;;;;;7.05;1.60;;;15.10;99.90;;;;;;5058880;28;20048;-67
2023/08/10 00:56:45;;;;;;;3.88;1.70;;;15.10;99.90;;;;;;5060819;28;20048;-67
2023/08/10 00:59:11;;;;;;;8.18;1.95;;;15.10;99.90;;;;;;5058053;28;20040;-67
2023/08/10 01:01:37;;;;;;;7.20;1.90;;;15.10;99.90;;;;;;5058464;28;20041;-67
2023/08/10 01:04:02;;;;;;;4.75;1.60;;;15.10;99.90;;;;;;5059792;28;20095;-67
2023/08/10 01:06:44;;;;;;;5.28;1.50;;;15.10;99.90;;;;;;5057888;28;20049;-68
2023/08/10 01:09:33;;;;;;;2.90;1.50;;;15.10;99.90;;;;;;5059517;28;20507;-67
2023/08/10 01:12:07;;;;;;;4.10;1.70;;;15.10;99.90;;;;;;5059076;28;20106;-67
2023/08/10 01:14:44;;;;;;;4.95;1.85;;;15.10;99.90;;;;;;5058192;28;20041;-68
2023/08/10 01:17:27;;;;;;;3.45;1.63;;;15.00;99.90;;;;;;5059276;28;20051;-66
2023/08/10 01:19:54;;;;;;;7.78;2.60;;;15.00;99.90;;;;;;5041021;28;20520;-66
2023/08/10 01:22:41;;;;;;;3.45;1.90;;;15.00;99.90;;;;;;5058840;28;20770;-66
2023/08/10 01:25:09;;;;;;;8.73;1.92;;;15.00;99.90;;;;;;5058650;28;20103;-67
2023/08/10 01:27:36;;;;;;;3.97;1.95;;;15.00;99.90;;;;;;5059447;28;20053;-67
2023/08/10 01:30:04;;;;;;;3.80;1.50;;;15.00;99.90;;;;;;5060583;28;20145;-67
2023/08/10 01:32:30;;;;;;;2.53;1.70;;;15.00;99.90;;;;;;5059529;28;20075;-68
2023/08/10 01:34:57;;;;;;;4.43;1.63;;;15.00;99.90;;;;;;5059056;28;20124;-67
2023/08/10 01:37:26;;;;;;;8.00;2.47;;;15.00;99.90;;;;;;5060103;28;20048;-67
2023/08/10 01:39:52;;;;;;;3.00;1.58;;;15.00;99.90;;;;;;5075682;28;20071;-67
2023/08/10 01:42:18;;;;;;;5.43;1.60;;;15.00;99.90;;;;;;5080363;28;20051;-67
2023/08/10 01:44:44;;;;;;;3.28;1.50;;;15.00;99.90;;;;;;5077121;28;20113;-68
2023/08/10 01:47:27;;;;;;;5.50;1.92;;;15.00;99.90;;;;;;5078260;28;20063;-68
2023/08/10 01:49:56;;;;;;;4.97;2.00;;;15.00;99.90;;;;;;5077950;28;20060;-67
2023/08/10 01:52:31;;;;;;;4.13;1.77;;;14.90;99.90;;;;;;5078077;28;20056;-68
2023/08/10 01:54:58;;;;;;;7.32;1.63;;;14.90;99.90;;;;;;5078193;28;20056;-66
2023/08/10 01:57:24;;;;;;;3.42;1.60;;;14.90;99.90;;;;;;5060703;28;20048;-66
2023/08/10 01:59:50;;;;;;;3.75;1.60;;;14.80;99.90;;;;;;5079773;28;20040;-67
2023/08/10 02:02:16;;;;;;;5.40;1.70;;;14.80;99.90;;;;;;5077086;28;20037;-67
2023/08/10 02:04:42;;;;;;;2.53;1.50;;;14.80;99.90;;;;;;5078616;28;20075;-68
2023/08/10 02:07:08;;;;;;;3.15;1.63;;;14.80;99.90;;;;;;5077441;28;20052;-68
2023/08/10 02:09:34;;;;;;;10.10;2.17;;;14.70;99.90;;;;;;5079191;28;20059;-68
2023/08/10 02:11:59;;;;;;;3.90;1.67;;;14.80;99.90;;;;;;5079174;28;20076;-68
2023/08/10 02:14:25;;;;;;;5.72;1.80;;;14.80;99.90;;;;;;5078218;28;20075;-67
2023/08/10 02:16:51;;;;;;;4.72;1.98;;;14.80;99.90;;;;;;5077819;28;20048;-68
2023/08/10 02:19:17;;;;;;;3.78;1.85;;;14.80;99.90;;;;;;5059858;28;20072;-67
2023/08/10 02:21:42;;;;;;;6.50;2.35;;;14.80;99.90;;;;;;5079648;28;20063;-66
2023/08/10 02:24:08;;;;;;;5.20;2.08;;;14.80;99.90;;;;;;5076859;28;20053;-67
2023/08/10 02:26:34;;;;;;;6.57;2.50;;;14.80;99.90;;;;;;5078542;28;20048;-67
2023/08/10 02:29:00;;;;;;;4.28;2.20;;;14.70;99.90;;;;;;5060293;28;20052;-69
2023/08/10 02:31:26;;;;;;;3.58;1.70;;;14.70;99.90;;;;;;5075264;28;20036;-67
2023/08/10 02:33:52;;;;;;;3.83;2.22;;;14.70;99.90;;;;;;5078600;28;20052;-68
2023/08/10 02:36:18;;;;;;;2.75;2.28;;;14.60;99.90;;;;;;5075889;28;20426;-68
2023/08/10 02:38:43;;;;;;;5.78;2.35;;;14.60;99.90;;;;;;5077789;28;20525;-67
2023/08/10 02:41:09;;;;;;;4.15;2.10;;;14.60;99.90;;;;;;5076104;28;20045;-68
2023/08/10 02:43:35;;;;;;;5.10;1.90;;;14.50;99.90;;;;;;5077074;28;20040;-67
2023/08/10 02:46:02;;;;;;;3.20;2.13;;;14.50;99.90;;;;;;5078105;28;20077;-68
2023/08/10 02:48:28;;;;;;;3.95;1.77;;;14.50;99.90;;;;;;5077753;28;20057;-66
2023/08/10 02:50:54;;;;;;;4.00;2.03;;;14.50;99.90;;;;;;5077075;28;21002;-69
2023/08/10 02:53:20;;;;;;;7.00;2.30;;;14.50;99.90;;;;;;5077668;28;20055;-67
2023/08/10 02:55:46;;;;;;;8.88;2.45;;;14.50;99.90;;;;;;5077373;28;20044;-68
2023/08/10 02:58:11;;;;;;;5.35;2.60;;;14.50;99.90;;;;;;5077305;28;20144;-67
2023/08/10 03:00:37;;;;;;;4.88;2.00;;;14.50;99.90;;;;;;5078680;28;20090;-68
2023/08/10 03:03:04;;;;;;;5.35;2.95;;;14.50;99.90;;;;;;5076605;28;20048;-68
2023/08/10 03:05:29;;;;;;;9.40;2.20;;;14.50;99.90;;;;;;5077851;28;20040;-68
2023/08/10 03:07:55;;;;;;;3.55;2.30;;;14.60;99.90;;;;;;5077121;28;20055;-67
2023/08/10 03:10:21;;;;;;;7.43;2.25;;;14.60;99.90;;;;;;5077726;28;20048;-68
2023/08/10 03:12:47;;;;;;;5.30;1.98;;;14.60;99.90;;;;;;5077216;28;20051;-67
2023/08/10 03:15:12;;;;;;;5.20;2.35;;;14.60;99.90;;;;;;5077185;28;20045;-67
2023/08/10 03:17:41;;;;;;;5.15;2.15;;;14.60;99.90;;;;;;5077305;28;20044;-66
2023/08/10 03:20:16;;;;;;;11.25;2.75;;;14.60;99.90;;;;;;5077649;28;20084;-67
2023/08/10 03:22:43;;;;;;;6.10;2.42;;;14.60;99.90;;;;;;5077547;28;20040;-67
2023/08/10 03:25:09;;;;;;;6.82;2.20;;;14.50;99.90;;;;;;5077837;28;20068;-68
2023/08/10 03:27:35;;;;;;;4.30;2.38;;;14.60;99.90;;;;;;5076734;28;20055;-66
2023/08/10 03:30:01;;;;;;;6.90;2.28;;;14.60;99.90;;;;;;5078154;28;20044;-67
2023/08/10 03:32:27;;;;;;;10.77;2.45;;;14.60;99.90;;;;;;5075172;28;20506;-67
2023/08/10 03:34:52;;;;;;;5.28;2.00;;;14.60;99.90;;;;;;5078048;28;20045;-68
2023/08/10 03:37:18;;;;;;;7.72;2.20;;;14.60;99.90;;;;;;5076056;28;20071;-67
2023/08/10 03:39:44;;;;;;;5.70;2.55;;;14.60;99.90;;;;;;5077177;28;20048;-67
2023/08/10 03:42:10;;;;;;;4.35;2.25;;;14.60;99.90;;;;;;5075724;28;20056;-68
2023/08/10 03:44:36;;;;;;;5.20;2.33;;;14.60;99.90;;;;;;5075412;28;20086;-68
2023/08/10 03:47:02;;;;;;;5.90;2.85;;;14.60;99.90;;;;;;5076128;28;20060;-67
2023/08/10 03:49:28;;;;;;;4.38;2.17;;;14.60;99.90;;;;;;5074889;28;20064;-67
2023/08/10 03:51:54;;;;;;;6.68;2.28;;;14.60;99.90;;;;;;5077986;28;20050;-66
2023/08/10 03:54:20;;;;;;;5.65;2.65;;;14.60;99.90;;;;;;5075742;28;20044;-67
2023/08/10 03:56:46;;;;;;;4.43;2.50;;;14.70;99.90;;;;;;5076832;28;20047;-67
2023/08/10 03:59:11;;;;;;;5.57;3.25;;;14.70;99.90;;;;;;5059405;28;20104;-67
2023/08/10 04:01:37;;;;;;;6.07;2.72;;;14.70;99.90;;;;;;5041941;28;20044;-67
2023/08/10 04:04:03;;;;;;;6.40;2.92;;;14.60;99.90;;;;;;5075063;28;20083;-68
2023/08/10 04:06:29;;;;;;;6.93;2.55;;;14.70;99.90;;;;;;5076407;28;20059;-67
2023/08/10 04:08:55;;;;;;;8.48;2.50;;;14.70;99.90;;;;;;5078081;28;20037;-67
2023/08/10 04:11:21;;;;;;;4.40;2.53;;;14.70;99.90;;;;;;5076897;28;20114;-67
2023/08/10 04:13:46;;;;;;;5.00;2.47;;;14.70;99.90;;;;;;5075939;28;20080;-69
2023/08/10 04:16:12;;;;;;;9.75;2.53;;;14.70;99.90;;;;;;5075997;28;20037;-68
2023/08/10 04:18:39;;;;;;;6.55;2.22;;;14.70;99.90;;;;;;5075533;28;20669;-68
2023/08/10 04:21:05;;;;;;;6.28;2.83;;;14.70;99.90;;;;;;5076306;28;20048;-67
2023/08/10 04:23:31;;;;;;;8.88;2.75;;;14.70;99.90;;;;;;5076290;28;20044;-67
2023/08/10 04:25:57;;;;;;;8.77;2.65;;;14.70;99.90;;;;;;5076241;28;20113;-67
2023/08/10 04:28:23;;;;;;;8.50;2.50;;;14.70;99.90;;;;;;5076501;28;20342;-67
2023/08/10 04:30:49;;;;;;;5.40;2.85;;;14.70;99.90;;;;;;5076006;28;20045;-68
2023/08/10 04:33:15;;;;;;;4.40;2.80;;;14.70;99.90;;;;;;5059167;28;20048;-66
2023/08/10 04:35:40;;;;;;;9.05;2.80;;;14.70;99.90;;;;;;5076396;28;20040;-67
2023/08/10 04:38:06;;;;;;;6.20;2.58;;;14.80;99.90;;;;;;5077190;28;20051;-66
2023/08/10 04:40:32;;;;;;;11.07;3.85;;;14.80;99.90;;;;;;5058316;28;20114;-66
2023/08/10 04:42:59;;;;;;;6.10;3.05;;;14.80;99.90;;;;;;5076437;28;20059;-67
2023/08/10 04:45:25;;;;;;;5.95;2.88;;;14.80;99.90;;;;;;5076542;28;20084;-67
2023/08/10 04:47:51;;;;;;;11.70;2.60;;;14.80;99.90;;;;;;5075792;28;20049;-67
2023/08/10 04:50:17;;;;;;;7.85;2.95;;;14.80;99.90;;;;;;5058972;28;20052;-67
2023/08/10 04:52:43;;;;;;;5.10;2.97;;;14.80;99.90;;;;;;5076302;28;20048;-67
2023/08/10 04:55:10;;;;;;;10.00;2.97;;;14.80;99.90;;;;;;5077677;28;20052;-67
2023/08/10 04:57:37;;;;;;;9.60;3.40;;;14.80;99.90;;;;;;5079709;28;20096;-67
2023/08/10 05:00:13;;;;;;;10.00;2.70;;;14.80;99.90;;;;;;5081357;28;20037;-67
2023/08/10 05:02:39;;;;;;;8.82;3.25;;;14.90;99.90;;;;;;5078679;28;20058;-67
2023/08/10 05:05:06;;;;;;;8.15;2.80;;;14.90;99.90;;;;;;5080771;28;20074;-67
2023/08/10 05:07:32;;;;;;;11.20;3.30;;;14.80;99.90;;;;;;5080338;28;20048;-67
2023/08/10 05:09:59;;;;;;;5.00;2.83;;;14.90;99.90;;;;;;5062002;28;20052;-66
2023/08/10 05:12:25;;;;;;;6.70;3.00;;;14.90;99.90;;;;;;5082044;28;20076;-67
2023/08/10 05:14:51;;;;;;;6.45;3.40;;;14.80;99.90;;;;;;5098283;28;20066;-66
2023/08/10 05:17:17;;;;;;;5.30;2.95;;;14.90;99.90;;;;;;5099816;28;20044;-67
2023/08/10 05:19:42;;;;;;;9.32;3.53;;;14.90;99.90;;;;;;5098279;28;20078;-67
2023/08/10 05:22:09;;;;;;;10.30;3.90;;;15.00;99.90;;;;;;5100307;28;20052;-67
2023/08/10 05:24:34;;;;;;;7.63;3.60;;;15.00;99.90;;;;;;5100315;28;20040;-67
2023/08/10 05:27:01;;;;;;;6.30;3.58;;;15.00;99.90;;;;;;5099439;28;20100;-67
2023/08/10 05:29:27;;;;;;;5.50;3.17;;;15.00;99.90;;;;;;5100517;28;20068;-67
2023/08/10 05:31:53;;;;;;;12.88;3.33;;;15.00;99.90;;;;;;5099053;28;20858;-67
2023/08/10 05:34:19;;;;;;;7.13;3.40;;;15.00;99.90;;;;;;5092021;28;20040;-66
2023/08/10 05:36:44;;;;;;;7.18;2.90;;;15.00;99.90;;;;;;5076919;28;20052;-67
2023/08/10 05:39:10;;;;;;;8.90;3.40;;;15.00;99.90;;;;;;5079889;28;20618;-66
2023/08/10 05:41:36;;;;;;;6.40;3.15;;;15.10;99.90;;;;;;5060925;28;20048;-67
2023/08/10 05:44:02;;;;;;;4.82;3.08;;;15.10;99.90;;;;;;5078905;28;20041;-67
2023/08/10 05:46:27;;;;;;;13.07;3.60;;;15.10;99.90;;;;;;5061517;28;20078;-67
2023/08/10 05:48:53;;;;;;;6.97;2.80;;;15.10;99.90;;;;;;5078298;28;20072;-68
2023/08/10 05:51:19;;;;;;;7.55;3.40;;;15.10;99.90;;;;;;5078267;28;20110;-67
2023/08/10 05:53:44;;;;;;;8.20;2.85;;;15.20;99.90;;;;;;5078339;28;20059;-67
2023/08/10 05:56:10;;;;;;;7.35;2.85;;;15.10;99.90;;;;;;5079671;28;20048;-68
2023/08/10 05:58:36;;;;;;;12.40;3.28;;;15.10;99.90;;;;;;5079050;28;20041;-66
2023/08/10 06:01:03;;;;;;;6.25;3.00;;;15.20;99.90;;;;;;5078936;28;20048;-68
2023/08/10 06:03:29;;;;;;;8.75;3.60;;;15.20;99.90;;;;;;5079224;28;20044;-68
2023/08/10 06:05:55;;;;;;;13.65;3.55;;;15.20;99.90;;;;;;5076449;28;20086;-67
2023/08/10 06:08:22;;;;;;;7.53;3.17;;;15.30;99.90;;;;;;5079480;28;20044;-67
2023/08/10 06:10:50;;;;;;;6.28;3.05;;;15.30;99.90;;;;;;5077941;28;20052;-69
2023/08/10 06:13:18;;;;;;;5.30;2.90;;;15.40;99.90;;;;;;5079673;28;20076;-68
2023/08/10 06:15:47;;;;;;;6.13;2.95;;;15.60;99.90;;;;;;5078693;28;20044;-68
2023/08/10 06:18:13;;;;;;;6.32;3.28;;;15.80;99.90;;;;;;5076902;28;20048;-69
2023/08/10 06:20:40;;;;;;;8.40;3.33;;;16.00;99.90;;;;;;5075924;28;20055;-70
2023/08/10 06:23:07;;;;;;;8.73;2.47;;;16.30;99.90;;;;;;5085719;28;20040;-70
2023/08/10 06:25:33;;;;;;;4.28;3.08;;;16.60;99.90;;;;;;5082413;28;20059;-70
2023/08/10 06:27:59;;;;;;;4.65;2.58;;;16.80;99.90;;;;;;5077956;28;20083;-70
2023/08/10 06:30:26;;;;;;;5.57;2.55;;;17.10;99.90;;;;;;5061595;28;20068;-68
2023/08/10 06:32:52;;;;;;;5.97;2.38;;;17.20;99.90;;;;;;5077073;28;20040;-68
2023/08/10 06:35:19;;;;;;;3.42;2.50;;;17.30;99.90;;;;;;5076753;28;20052;-69
2023/08/10 06:37:45;;;;;;;7.05;2.65;;;17.30;99.90;;;;;;5077357;28;20063;-68
2023/08/10 06:40:15;;;;;;;6.43;2.10;;;17.40;99.90;;;;;;5076596;28;20045;-68
2023/08/10 06:42:41;;;;;;;5.82;2.22;;;17.30;99.90;;;;;;5078132;28;20078;-68
2023/08/10 06:45:08;;;;;;;5.68;2.05;;;17.20;99.90;;;;;;5077584;28;20071;-69
2023/08/10 06:47:34;;;;;;;5.72;1.50;;;17.20;99.90;;;;;;5077366;28;20056;-70
2023/08/10 06:50:00;;;;;;;4.40;1.90;;;17.40;99.90;;;;;;5076413;28;20056;-68
2023/08/10 06:52:26;;;;;;;4.63;2.22;;;17.40;99.90;;;;;;5076439;28;20051;-69
2023/08/10 06:54:52;;;;;;;5.55;2.20;;;17.40;99.90;;;;;;5076822;28;20048;-69
2023/08/10 06:57:21;;;;;;;6.95;2.35;;;17.50;99.90;;;;;;5076041;28;20054;-70
2023/08/10 06:59:47;;;;;;;3.33;2.05;;;17.60;99.90;;;;;;5078596;28;20158;-69
2023/08/10 07:02:14;;;;;;;5.38;2.20;;;17.80;99.90;;;;;;5075729;28;20072;-69
2023/08/10 07:04:40;;;;;;;7.07;1.92;;;17.70;99.90;;;;;;5076848;28;20127;-68
2023/08/10 07:07:07;;;;;;;5.57;1.25;;;17.80;99.90;;;;;;5074488;28;20056;-68
2023/08/10 07:09:32;;;;;;;3.45;1.48;;;17.80;99.90;;;;;;5077610;28;20055;-69
2023/08/10 07:11:58;;;;;;;4.07;1.73;;;17.80;99.90;;;;;;5076672;28;20149;-69
2023/08/10 07:14:24;;;;;;;5.35;1.30;;;17.80;99.90;;;;;;5075726;28;20762;-69
2023/08/10 07:16:50;;;;;;;6.22;1.70;;;17.70;99.90;;;;;;5077864;28;20052;-69
2023/08/10 07:19:15;;;;;;;5.65;1.67;;;17.70;99.90;;;;;;5074876;28;20045;-69
2023/08/10 07:21:41;;;;;;;4.70;1.48;;;17.70;99.90;;;;;;5060215;28;20044;-69
2023/08/10 07:24:07;;;;;;;3.22;1.70;;;17.70;99.90;;;;;;5077351;28;20047;-69
2023/08/10 07:26:33;;;;;;;5.03;1.63;;;17.70;99.90;;;;;;5077772;28;20129;-69
2023/08/10 07:29:00;;;;;;;1.85;1.40;;;17.70;99.90;;;;;;5077831;28;20044;-67
2023/08/10 07:31:31;;;;;;;8.18;1.52;;;17.80;99.90;;;;;;5059337;28;20049;-68
2023/08/10 07:34:00;;;;;;;4.30;1.50;;;17.90;99.90;;;;;;5077492;28;20542;-68
2023/08/10 07:36:26;;;;;;;4.60;1.60;;;18.00;99.90;;;;;;5066617;28;20048;-68
2023/08/10 07:38:56;;;;;;;6.75;2.00;;;18.00;99.90;;;;;;5076947;28;20092;-70
2023/08/10 07:41:22;;;;;;;3.97;1.42;;;18.10;99.90;;;;;;5074049;28;20108;-68
2023/08/10 07:43:48;;;;;;;2.80;1.42;;;18.20;99.90;;;;;;5074983;28;20059;-67
2023/08/10 07:46:14;;;;;;;4.07;1.58;;;18.30;99.90;;;;;;5075629;28;20036;-69
2023/08/10 07:48:40;;;;;;;3.25;1.38;;;18.30;99.90;;;;;;5074003;28;20079;-69
2023/08/10 07:51:06;;;;;;;9.65;1.42;;;18.40;99.90;;;;;;5058058;28;20048;-68
2023/08/10 07:53:33;;;;;;;9.23;1.67;;;18.40;99.90;;;;;;5057601;28;20041;-69
2023/08/10 07:55:59;;;;;;;5.88;1.75;;;18.40;99.90;;;;;;5076550;28;20810;-68
2023/08/10 07:58:25;;;;;;;6.10;1.27;;;18.40;99.90;;;;;;5075502;28;20041;-69
2023/08/10 08:00:50;;;;;;;5.55;1.35;;;18.50;99.90;;;;;;5077452;28;20044;-67
2023/08/10 08:03:16;;;;;;;5.28;1.60;;;18.60;99.90;;;;;;5077128;28;20041;-67
2023/08/10 08:05:42;;;;;;;10.10;1.58;;;18.60;99.90;;;;;;5077074;28;20044;-67
2023/08/10 08:08:08;;;;;;;4.97;1.80;;;18.70;99.90;;;;;;5076746;28;20059;-66
2023/08/10 08:10:35;;;;;;;4.53;1.55;;;18.70;99.90;;;;;;5075305;28;20143;-67
2023/08/10 08:13:03;;;;;;;7.32;1.60;;;18.80;99.90;;;;;;5076905;28;20057;-67
2023/08/10 08:15:29;;;;;;;3.67;1.20;;;18.60;99.90;;;;;;5075550;28;20585;-67
2023/08/10 08:18:34;;;;;;;11.18;1.90;;;18.60;99.90;;;;;;5059255;28;20822;-67
2023/08/10 08:21:00;;;;;;;3.47;1.65;;;18.60;99.90;;;;;;5076524;28;20036;-67
2023/08/10 08:23:26;;;;;;;5.75;1.73;;;18.60;99.90;;;;;;5076614;28;20049;-67
2023/08/10 08:25:52;;;;;;;4.53;1.52;;;18.60;99.90;;;;;;5077890;28;20047;-67
2023/08/10 08:28:17;;;;;;;7.43;1.42;;;18.50;99.90;;;;;;5073955;28;20051;-66
2023/08/10 08:30:43;;;;;;;4.65;1.70;;;18.50;99.90;;;;;;5079441;28;20098;-67
2023/08/10 08:33:09;;;;;;;6.03;1.50;;;18.50;99.90;;;;;;5079618;28;20060;-67
2023/08/10 08:35:35;;;;;;;5.32;1.40;;;18.50;99.90;;;;;;5079119;28;20045;-68
2023/08/10 08:38:01;;;;;;;5.55;1.27;;;18.50;99.90;;;;;;5080158;28;20045;-66
2023/08/10 08:40:27;;;;;;;6.68;1.55;;;18.50;99.90;;;;;;5080138;28;20234;-67
2023/08/10 08:42:53;;;;;;;11.48;1.38;;;18.50;99.90;;;;;;5078657;28;20060;-66
2023/08/10 08:45:19;;;;;;;3.95;1.27;;;18.40;99.90;;;;;;5078458;28;20053;-67
2023/08/10 08:47:46;;;;;;;6.68;1.63;;;18.50;99.90;;;;;;5080486;28;20615;-66
2023/08/10 08:50:14;;;;;;;4.88;1.55;;;18.40;99.90;;;;;;5062780;28;20084;-67
2023/08/10 08:52:42;;;;;;;4.10;1.35;;;18.40;99.90;;;;;;5078443;28;20152;-67
2023/08/10 08:55:10;;;;;;;4.80;1.52;;;18.40;99.90;;;;;;5079318;28;20122;-67
2023/08/10 08:57:35;;;;;;;6.30;1.23;;;18.30;99.90;;;;;;5079310;28;20055;-66
2023/08/10 09:00:02;;;;;;;3.65;1.23;;;18.40;99.90;;;;;;5080768;28;20048;-67
2023/08/10 09:02:28;;;;;;;4.63;1.20;;;18.40;99.90;;;;;;5079522;28;20056;-67
2023/08/10 09:04:59;;;;;;;5.53;1.20;;;18.40;99.90;;;;;;5079097;28;20111;-67
2023/08/10 09:07:34;;;;;;;5.70;1.30;;;18.50;99.90;;;;;;5079057;28;20795;-66
2023/08/10 09:10:00;;;;;;;4.50;1.30;;;18.50;99.90;;;;;;5061649;28;20040;-66
2023/08/10 09:12:53;;;;;;;4.55;1.30;;;18.60;99.90;;;;;;5078838;28;20074;-68
2023/08/10 09:15:19;;;;;;;7.63;1.58;;;18.60;99.90;;;;;;5074861;28;20064;-67
2023/08/10 09:17:46;;;;;;;5.65;1.50;;;18.50;99.90;;;;;;5078606;28;20068;-66
2023/08/10 09:20:22;;;;;;;3.95;1.30;;;18.50;99.90;;;;;;5078422;28;20056;-67
2023/08/10 09:22:51;;;;;;;7.70;1.30;;;18.40;99.90;;;;;;5079414;28;20107;-67
2023/08/10 09:25:17;;;;;;;7.75;1.60;;;18.30;99.90;;;;;;5078499;28;20101;-67
2023/08/10 09:27:44;;;;;;;6.22;1.42;;;18.30;99.90;;;;;;5077538;28;20063;-66
2023/08/10 09:30:10;;;;;;;2.25;1.30;;;18.40;99.90;;;;;;5080075;28;20666;-67
2023/08/10 09:32:38;;;;;;;1.90;1.00;;;18.40;99.90;;;;;;5060816;28;20342;-64
2023/08/10 09:35:05;;;;;;;5.45;1.60;;;18.50;99.90;;;;;;5079446;28;20692;-62
2023/08/10 09:37:31;;;;;;;5.82;1.65;;;18.50;99.90;;;;;;5079983;28;20067;-65
2023/08/10 09:40:07;;;;;;;3.10;1.33;;;18.60;99.90;;;;;;5078353;28;20044;-64
2023/08/10 09:42:34;;;;;;;7.50;1.67;;;18.60;99.90;;;;;;5080312;28;20045;-68
2023/08/10 09:45:04;;;;;;;3.20;1.58;;;18.60;99.90;;;;;;5078579;28;20051;-66
2023/08/10 09:47:35;;;;;;;4.82;1.75;;;18.70;99.90;;;;;;5078895;28;20076;-68
2023/08/10 09:50:05;;;;;;;5.18;1.33;;;18.70;99.90;;;;;;5078159;28;20056;-67
2023/08/10 09:52:32;;;;;;;5.03;1.55;;;18.70;99.90;;;;;;5079259;28;20075;-67
2023/08/10 09:54:58;;;;;;;3.75;1.60;;;18.70;99.90;;;;;;5080065;28;20068;-67
2023/08/10 09:57:26;;;;;;;8.65;1.65;;;18.80;99.90;;;;;;5078789;28;20040;-67
2023/08/10 09:59:52;;;;;;;4.80;1.55;;;18.80;99.90;;;;;;5080192;28;20141;-67
2023/08/10 10:02:22;;;;;;;5.00;1.52;;;18.80;99.90;;;;;;5077359;28;20052;-67
2023/08/10 10:04:48;;;;;;;11.00;1.88;;;18.80;99.90;;;;;;5078276;28;20048;-67
2023/08/10 10:07:21;;;;;;;6.43;2.05;;;18.70;99.90;;;;;;5061153;28;20045;-67
2023/08/10 10:09:49;;;;;;;4.88;1.65;;;18.80;99.90;;;;;;5061272;28;20473;-67
2023/08/10 10:12:15;;;;;;;3.75;1.42;;;18.80;99.90;;;;;;5078113;28;20152;-67
2023/08/10 10:14:46;;;;;;;1.42;1.27;;;18.70;99.90;;;;;;5076610;28;20040;-67
2023/08/10 10:17:17;;;;;;;4.65;1.52;;;18.80;99.90;;;;;;5065762;28;20068;-67
2023/08/10 10:19:45;;;;;;;7.25;1.50;;;18.80;99.90;;;;;;5077155;28;20083;-67
2023/08/10 10:22:11;;;;;;;5.22;1.40;;;18.90;99.90;;;;;;5077328;28;20119;-67
2023/08/10 10:24:41;;;;;;;6.28;1.20;;;18.80;99.90;;;;;;5078756;28;20049;-67
2023/08/10 10:27:09;;;;;;;3.88;1.40;;;18.80;99.90;;;;;;5075984;28;20093;-67
2023/08/10 10:29:57;;;;;;;3.83;1.23;;;18.90;99.90;;;;;;5077637;28;20044;-67
2023/08/10 10:32:24;;;;;;;6.03;1.45;;;18.90;99.90;;;;;;5077790;28;20068;-67
2023/08/10 10:34:52;;;;;;;5.20;1.33;;;18.90;99.90;;;;;;5079123;28;20048;-67
2023/08/10 10:37:29;;;;;;;5.68;1.67;;;18.90;99.90;;;;;;5076904;28;20515;-67
2023/08/10 10:40:13;;;;;;;5.65;1.25;;;19.00;99.90;;;;;;5078077;28;20052;-67
2023/08/10 10:43:08;;;;;;;4.40;1.30;;;18.90;99.90;;;;;;5061244;28;20050;-67
2023/08/10 10:45:41;;;;;;;4.82;1.50;;;18.90;99.90;;;;;;5078363;28;20036;-67
2023/08/10 10:48:10;;;;;;;3.35;1.60;;;18.90;99.90;;;;;;5077835;28;20067;-67
2023/08/10 10:50:36;;;;;;;8.82;1.55;;;18.90;99.90;;;;;;5076850;28;20496;-67
2023/08/10 10:53:04;;;;;;;4.85;1.40;;;18.80;99.90;;;;;;5074758;28;20048;-67
2023/08/10 10:55:43;;;;;;;4.72;1.50;;;18.80;99.90;;;;;;5078222;28;20048;-68
2023/08/10 10:58:10;;;;;;;5.35;1.48;;;18.90;99.90;;;;;;5076524;28;20460;-67
2023/08/10 11:00:37;;;;;;;5.10;1.60;;;18.80;99.90;;;;;;5039318;28;20077;-67
2023/08/10 11:03:08;;;;;;;2.42;1.40;;;18.80;99.90;;;;;;5056217;28;20044;-67
2023/08/10 11:05:34;;;;;;;4.37;1.97;;;18.80;99.90;;;;;;5076887;28;20131;-67
2023/08/10 11:08:05;;;;;;;10.93;2.05;;;18.80;99.90;;;;;;5059752;28;20051;-67
2023/08/10 11:10:36;;;;;;;7.65;1.83;;;18.80;99.90;;;;;;5076280;28;20622;-68
2023/08/10 11:13:06;;;;;;;6.60;1.77;;;18.80;99.90;;;;;;5076822;28;20140;-69
2023/08/10 11:15:33;;;;;;;6.28;2.40;;;18.90;99.90;;;;;;5075611;28;20044;-70
2023/08/10 11:17:59;;;;;;;6.65;1.70;;;19.00;99.90;;;;;;5069937;28;20725;-69
2023/08/10 11:20:25;;;;;;;5.30;1.98;;;19.00;99.90;;;;;;5074044;28;20399;-69
2023/08/10 11:22:52;;;;;;;4.88;1.70;;;19.00;99.90;;;;;;5076483;28;20044;-68
2023/08/10 11:25:23;;;;;;;6.43;2.15;;;19.10;99.90;;;;;;5075231;28;20517;-69
2023/08/10 11:27:49;;;;;;;4.28;2.20;;;19.00;99.90;;;;;;5076021;28;20044;-68
2023/08/10 11:30:19;;;;;;;4.13;1.70;;;19.10;99.90;;;;;;5077619;28;20525;-69
2023/08/10 11:32:46;;;;;;;9.23;2.22;;;19.10;99.90;;;;;;5075406;28;20079;-69
2023/08/10 11:35:14;;;;;;;5.88;1.98;;;19.20;99.90;;;;;;5075207;28;20090;-69
2023/08/10 11:37:42;;;;;;;6.00;2.13;;;19.20;99.90;;;;;;5075372;28;20037;-69
2023/08/10 11:40:13;;;;;;;6.65;1.83;;;19.20;99.90;;;;;;5074645;28;20049;-69
2023/08/10 11:42:41;;;;;;;10.80;2.00;;;19.20;99.90;;;;;;5075340;28;20044;-69
2023/08/10 11:45:20;;;;;;;8.27;2.33;;;19.20;99.90;;;;;;5074303;28;20151;-68
2023/08/10 11:47:59;;;;;;;5.72;2.10;;;19.20;99.90;;;;;;5075504;28;20063;-68
2023/08/10 11:50:29;;;;;;;7.65;2.05;;;19.20;99.90;;;;;;5084961;28;20524;-69
2023/08/10 11:52:55;;;;;;;5.45;1.88;;;19.20;99.90;;;;;;5073497;28;20037;-69
2023/08/10 11:55:21;;;;;;;6.57;2.50;;;19.20;99.90;;;;;;5075683;28;20048;-69
2023/08/10 11:57:52;;;;;;;6.30;2.13;;;19.10;99.90;;;;;;5075621;28;20033;-68
2023/08/10 12:00:30;;;;;;;8.15;2.30;;;19.20;99.90;;;;;;5077723;28;20122;-69
2023/08/10 12:03:06;;;;;;;10.57;2.20;;;19.20;99.90;;;;;;5076998;28;20114;-65
2023/08/10 12:05:50;;;;;;;6.68;2.08;;;19.30;99.90;;;;;;5068813;28;20053;-66
2023/08/10 12:08:18;;;;;;;12.80;2.78;;;19.30;99.90;;;;;;5081206;28;20048;-69
2023/08/10 12:10:48;;;;;;;7.32;2.25;;;19.30;99.90;;;;;;5075222;28;20048;-70
2023/08/10 12:13:18;;;;;;;4.28;2.03;;;19.40;99.90;;;;;;5058780;28;20044;-69
2023/08/10 12:15:48;;;;;;;4.05;2.10;;;19.50;99.90;;;;;;5056194;28;20075;-66
2023/08/10 12:18:16;;;;;;;3.75;2.17;;;19.50;99.90;;;;;;5043659;28;20052;-71
2023/08/10 12:20:45;;;;;;;5.28;2.08;;;19.50;99.90;;;;;;5062795;28;20087;-73
2023/08/10 12:23:12;;;;;;;7.25;1.73;;;19.60;99.90;;;;;;5078392;28;20063;-71
2023/08/10 12:25:39;;;;;;;6.65;2.10;;;19.60;99.90;;;;;;5079709;28;20048;-71
2023/08/10 12:28:07;;;;;;;3.20;1.80;;;19.70;99.90;;;;;;5079969;28;20044;-71
2023/08/10 12:30:34;;;;;;;4.95;1.90;;;19.70;99.90;;;;;;5078933;28;20046;-71
2023/08/10 12:33:04;;;;;;;6.90;2.17;;;19.70;99.90;;;;;;5080709;28;20062;-71
2023/08/10 12:35:30;;;;;;;4.50;2.03;;;19.80;99.90;;;;;;5078405;28;20048;-73
2023/08/10 12:37:56;;;;;;;6.47;2.42;;;19.90;99.90;;;;;;5080709;28;20042;-71
2023/08/10 12:40:22;;;;;;;9.98;2.78;;;19.80;99.90;;;;;;5077722;28;20094;-72
2023/08/10 12:42:48;;;;;;;5.60;2.80;;;19.80;99.90;;;;;;5081332;28;20116;-71
2023/08/10 12:45:14;;;;;;;6.55;2.75;;;19.80;99.90;;;;;;5079902;28;20161;-71
2023/08/10 12:47:42;;;;;;;5.53;2.08;;;19.90;99.90;;;;;;5080718;28;20498;-71